sensor_id;sensor_type;location;lat;lon;timestamp;pressure;altitude;pressure_sealevel;temperature;humidity
30682;BME280;17439;48.092;11.842;2024-01-07T00:02:21;94564.72;;;3.91;74.94
30682;BME280;17439;48.092;11.842;2024-01-07T00:04:47;94559.34;;;3.91;74.66
30682;BME280;17439;48.092;11.842;2024-01-07T00:07:14;94558.56;;;3.90;74.85
30682;BME280;17439;48.092;11.842;2024-01-07T00:09:41;94562.31;;;3.89;74.74
30682;BME280;17439;48.092;11.842;2024-01-07T00:12:08;94556.47;;;3.87;74.88
30682;BME280;17439;48.092;11.842;2024-01-07T00:14:34;94562.91;;;3.86;74.83
30682;BME280;17439;48.092;11.842;2024-01-07T00:17:01;94559.13;;;3.87;74.88
30682;BME280;17439;48.092;11.842;2024-01-07T00:19:28;94555.97;;;3.85;74.70
30682;BME280;17439;48.092;11.842;2024-01-07T00:21:55;94559.72;;;3.84;74.76
30682;BME280;17439;48.092;11.842;2024-01-07T00:24:22;94565.09;;;3.84;75.00
30682;BME280;17439;48.092;11.842;2024-01-07T00:26:48;94570.44;;;3.84;75.06
30682;BME280;17439;48.092;11.842;2024-01-07T00:29:15;94563.19;;;3.85;75.21
30682;BME280;17439;48.092;11.842;2024-01-07T00:31:42;94561.31;;;3.85;75.33
30682;BME280;17439;48.092;11.842;2024-01-07T00:34:09;94562.91;;;3.86;75.29
30682;BME280;17439;48.092;11.842;2024-01-07T00:36:36;94557.25;;;3.88;75.16
30682;BME280;17439;48.092;11.842;2024-01-07T00:39:03;94558.34;;;3.87;74.99
30682;BME280;17439;48.092;11.842;2024-01-07T00:41:29;94557.53;;;3.86;75.20
30682;BME280;17439;48.092;11.842;2024-01-07T00:43:56;94561.31;;;3.85;75.35
30682;BME280;17439;48.092;11.842;2024-01-07T00:46:23;94563.72;;;3.87;75.29
30682;BME280;17439;48.092;11.842;2024-01-07T00:48:50;94557.53;;;3.86;75.47
30682;BME280;17439;48.092;11.842;2024-01-07T00:51:17;94557.53;;;3.86;75.51
30682;BME280;17439;48.092;11.842;2024-01-07T00:53:43;94559.13;;;3.87;75.51
30682;BME280;17439;48.092;11.842;2024-01-07T00:56:10;94555.38;;;3.88;75.37
30682;BME280;17439;48.092;11.842;2024-01-07T00:58:37;94554.56;;;3.88;74.98
30682;BME280;17439;48.092;11.842;2024-01-07T01:01:03;94554.56;;;3.88;74.96
30682;BME280;17439;48.092;11.842;2024-01-07T01:03:30;94553.78;;;3.87;74.87
30682;BME280;17439;48.092;11.842;2024-01-07T01:05:58;94553.00;;;3.87;74.94
30682;BME280;17439;48.092;11.842;2024-01-07T01:08:25;94554.84;;;3.86;74.89
30682;BME280;17439;48.092;11.842;2024-01-07T01:10:51;94557.53;;;3.86;74.96
30682;BME280;17439;48.092;11.842;2024-01-07T01:13:18;94568.25;;;3.86;75.05
30682;BME280;17439;48.092;11.842;2024-01-07T01:15:45;94565.59;;;3.86;75.06
30682;BME280;17439;48.092;11.842;2024-01-07T01:18:12;94563.72;;;3.87;75.19
30682;BME280;17439;48.092;11.842;2024-01-07T01:20:38;94566.09;;;3.88;75.22
30682;BME280;17439;48.092;11.842;2024-01-07T01:23:05;94565.59;;;3.86;75.03
30682;BME280;17439;48.092;11.842;2024-01-07T01:25:32;94567.97;;;3.88;75.08
30682;BME280;17439;48.092;11.842;2024-01-07T01:27:58;94567.19;;;3.87;75.04
30682;BME280;17439;48.092;11.842;2024-01-07T01:30:25;94571.47;;;3.88;74.84
30682;BME280;17439;48.092;11.842;2024-01-07T01:32:52;94570.94;;;3.86;74.76
30682;BME280;17439;48.092;11.842;2024-01-07T01:35:19;94569.38;;;3.85;74.65
30682;BME280;17439;48.092;11.842;2024-01-07T01:37:46;94572.34;;;3.84;74.65
30682;BME280;17439;48.092;11.842;2024-01-07T01:40:12;94571.53;;;3.83;74.90
30682;BME280;17439;48.092;11.842;2024-01-07T01:42:43;94572.63;;;3.82;74.68
30682;BME280;17439;48.092;11.842;2024-01-07T01:45:10;94565.38;;;3.83;75.18
30682;BME280;17439;48.092;11.842;2024-01-07T01:47:36;94568.06;;;3.83;75.19
30682;BME280;17439;48.092;11.842;2024-01-07T01:50:04;94573.41;;;3.83;75.08
30682;BME280;17439;48.092;11.842;2024-01-07T01:52:31;94563.47;;;3.83;75.29
30682;BME280;17439;48.092;11.842;2024-01-07T01:54:58;94568.84;;;3.83;75.14
30682;BME280;17439;48.092;11.842;2024-01-07T01:57:33;94556.53;;;3.82;74.54
30682;BME280;17439;48.092;11.842;2024-01-07T02:00:02;94567.75;;;3.84;74.92
30682;BME280;17439;48.092;11.842;2024-01-07T02:02:33;94559.72;;;3.84;74.85
30682;BME280;17439;48.092;11.842;2024-01-07T02:05:02;94561.31;;;3.85;75.38
30682;BME280;17439;48.092;11.842;2024-01-07T02:07:32;94555.97;;;3.85;75.14
30682;BME280;17439;48.092;11.842;2024-01-07T02:10:00;94562.91;;;3.86;75.47
30682;BME280;17439;48.092;11.842;2024-01-07T02:12:26;94559.94;;;3.88;75.37
30682;BME280;17439;48.092;11.842;2024-01-07T02:14:53;94559.94;;;3.88;75.56
30682;BME280;17439;48.092;11.842;2024-01-07T02:17:20;94560.47;;;3.90;75.40
30682;BME280;17439;48.092;11.842;2024-01-07T02:19:47;94556.97;;;3.89;75.56
30682;BME280;17439;48.092;11.842;2024-01-07T02:22:14;94561.25;;;3.90;75.69
30682;BME280;17439;48.092;11.842;2024-01-07T02:24:41;94555.59;;;3.92;75.49
30682;BME280;17439;48.092;11.842;2024-01-07T02:27:08;94561.75;;;3.92;75.41
30682;BME280;17439;48.092;11.842;2024-01-07T02:29:34;94560.66;;;3.93;75.38
30682;BME280;17439;48.092;11.842;2024-01-07T02:32:01;94563.84;;;3.95;75.26
30682;BME280;17439;48.092;11.842;2024-01-07T02:34:29;94559.56;;;3.94;75.42
30682;BME280;17439;48.092;11.842;2024-01-07T02:36:56;94567.59;;;3.94;75.39
30682;BME280;17439;48.092;11.842;2024-01-07T02:39:22;94573.50;;;3.96;75.60
30682;BME280;17439;48.092;11.842;2024-01-07T02:41:50;94572.09;;;3.99;75.47
30682;BME280;17439;48.092;11.842;2024-01-07T02:44:16;94560.59;;;3.98;75.33
30682;BME280;17439;48.092;11.842;2024-01-07T02:46:43;94564.06;;;3.99;75.40
30682;BME280;17439;48.092;11.842;2024-01-07T02:49:10;94564.06;;;3.99;75.55
30682;BME280;17439;48.092;11.842;2024-01-07T02:51:36;94561.09;;;4.00;75.57
30682;BME280;17439;48.092;11.842;2024-01-07T02:54:03;94558.41;;;4.00;75.31
30682;BME280;17439;48.092;11.842;2024-01-07T02:56:30;94557.63;;;4.00;75.36
30682;BME280;17439;48.092;11.842;2024-01-07T02:58:57;94553.03;;;4.00;75.53
30682;BME280;17439;48.092;11.842;2024-01-07T03:01:24;94560.78;;;4.02;75.42
30682;BME280;17439;48.092;11.842;2024-01-07T03:03:53;94555.44;;;4.02;75.41
30682;BME280;17439;48.092;11.842;2024-01-07T03:06:26;94559.72;;;4.03;74.81
30682;BME280;17439;48.092;11.842;2024-01-07T03:08:53;94558.63;;;4.04;75.68
30682;BME280;17439;48.092;11.842;2024-01-07T03:11:20;94551.38;;;4.05;75.83
30682;BME280;17439;48.092;11.842;2024-01-07T03:13:46;94557.25;;;4.07;75.65
30682;BME280;17439;48.092;11.842;2024-01-07T03:16:23;94555.38;;;4.07;74.72
30682;BME280;17439;48.092;11.842;2024-01-07T03:18:50;94560.66;;;4.12;75.74
30682;BME280;17439;48.092;11.842;2024-01-07T03:21:21;94555.28;;;4.12;74.88
30682;BME280;17439;48.092;11.842;2024-01-07T03:23:50;94562.25;;;4.13;75.09
30682;BME280;17439;48.092;11.842;2024-01-07T03:26:17;94564.50;;;4.06;74.03
30682;BME280;17439;48.092;11.842;2024-01-07T03:28:44;94559.34;;;4.10;75.13
30682;BME280;17439;48.092;11.842;2024-01-07T03:31:13;94569.28;;;4.09;74.46
30682;BME280;17439;48.092;11.842;2024-01-07T03:33:42;94565.78;;;4.09;74.75
30682;BME280;17439;48.092;11.842;2024-01-07T03:36:11;94565.00;;;4.08;74.87
30682;BME280;17439;48.092;11.842;2024-01-07T03:38:39;94561.53;;;4.08;75.11
30682;BME280;17439;48.092;11.842;2024-01-07T03:41:06;94561.81;;;4.06;75.16
30682;BME280;17439;48.092;11.842;2024-01-07T03:43:33;94558.63;;;4.04;74.99
30682;BME280;17439;48.092;11.842;2024-01-07T03:46:00;94559.72;;;4.03;75.03
30682;BME280;17439;48.092;11.842;2024-01-07T03:48:27;94563.19;;;4.04;75.45
30682;BME280;17439;48.092;11.842;2024-01-07T03:50:54;94563.19;;;4.04;75.31
30682;BME280;17439;48.092;11.842;2024-01-07T03:53:21;94567.47;;;4.05;75.53
30682;BME280;17439;48.092;11.842;2024-01-07T03:55:48;94569.38;;;4.04;75.28
30682;BME280;17439;48.092;11.842;2024-01-07T03:58:14;94573.34;;;4.07;75.21
30682;BME280;17439;48.092;11.842;2024-01-07T04:00:41;94578.69;;;4.07;75.23
30682;BME280;17439;48.092;11.842;2024-01-07T04:03:08;94573.34;;;4.07;75.18
30682;BME280;17439;48.092;11.842;2024-01-07T04:05:34;94572.56;;;4.06;75.15
30682;BME280;17439;48.092;11.842;2024-01-07T04:08:01;94574.72;;;4.04;75.10
30682;BME280;17439;48.092;11.842;2024-01-07T04:10:28;94573.91;;;4.04;75.20
30682;BME280;17439;48.092;11.842;2024-01-07T04:12:55;94572.06;;;4.04;75.23
30682;BME280;17439;48.092;11.842;2024-01-07T04:15:23;94570.44;;;4.03;75.15
30682;BME280;17439;48.092;11.842;2024-01-07T04:17:49;94571.22;;;4.04;75.35
30682;BME280;17439;48.092;11.842;2024-01-07T04:20:16;94575.53;;;4.05;75.26
30682;BME280;17439;48.092;11.842;2024-01-07T04:22:43;94578.22;;;4.05;75.19
30682;BME280;17439;48.092;11.842;2024-01-07T04:25:10;94577.91;;;4.06;75.29
30682;BME280;17439;48.092;11.842;2024-01-07T04:27:37;94584.34;;;4.05;75.10
30682;BME280;17439;48.092;11.842;2024-01-07T04:30:05;94586.25;;;4.05;75.22
30682;BME280;17439;48.092;11.842;2024-01-07T04:32:32;94587.31;;;4.04;75.28
30682;BME280;17439;48.092;11.842;2024-01-07T04:34:59;94590.81;;;4.04;75.39
30682;BME280;17439;48.092;11.842;2024-01-07T04:37:26;94596.97;;;4.05;75.51
30682;BME280;17439;48.092;11.842;2024-01-07T04:39:53;94598.28;;;4.07;75.72
30682;BME280;17439;48.092;11.842;2024-01-07T04:42:20;94601.78;;;4.08;75.65
30682;BME280;17439;48.092;11.842;2024-01-07T04:44:46;94595.63;;;4.07;75.41
30682;BME280;17439;48.092;11.842;2024-01-07T04:47:42;94613.06;;;4.05;73.78
30682;BME280;17439;48.092;11.842;2024-01-07T04:50:09;94603.94;;;4.06;75.52
30682;BME280;17439;48.092;11.842;2024-01-07T04:52:35;94602.06;;;4.06;75.58
30682;BME280;17439;48.092;11.842;2024-01-07T04:55:02;94607.41;;;4.06;75.70
30682;BME280;17439;48.092;11.842;2024-01-07T04:57:29;94609.53;;;4.09;75.80
30682;BME280;17439;48.092;11.842;2024-01-07T04:59:56;94610.31;;;4.10;75.65
30682;BME280;17439;48.092;11.842;2024-01-07T05:02:23;94607.34;;;4.11;75.65
30682;BME280;17439;48.092;11.842;2024-01-07T05:04:49;94620.47;;;4.13;75.47
30682;BME280;17439;48.092;11.842;2024-01-07T05:07:16;94621.25;;;4.13;75.40
30682;BME280;17439;48.092;11.842;2024-01-07T05:09:43;94619.38;;;4.14;75.26
30682;BME280;17439;48.092;11.842;2024-01-07T05:12:10;94616.72;;;4.14;75.46
30682;BME280;17439;48.092;11.842;2024-01-07T05:14:36;94618.56;;;4.13;75.33
30682;BME280;17439;48.092;11.842;2024-01-07T05:17:03;94615.09;;;4.13;75.50
30682;BME280;17439;48.092;11.842;2024-01-07T05:19:30;94615.09;;;4.13;75.40
30682;BME280;17439;48.092;11.842;2024-01-07T05:21:58;94617.78;;;4.13;75.41
30682;BME280;17439;48.092;11.842;2024-01-07T05:24:25;94625.03;;;4.12;75.39
30682;BME280;17439;48.092;11.842;2024-01-07T05:26:52;94627.72;;;4.12;75.31
30682;BME280;17439;48.092;11.842;2024-01-07T05:29:18;94628.22;;;4.14;75.45
30682;BME280;17439;48.092;11.842;2024-01-07T05:31:45;94633.09;;;4.12;75.13
30682;BME280;17439;48.092;11.842;2024-01-07T05:34:12;94634.97;;;4.12;75.19
30682;BME280;17439;48.092;11.842;2024-01-07T05:36:39;94633.88;;;4.13;75.31
30682;BME280;17439;48.092;11.842;2024-01-07T05:39:05;94635.78;;;4.12;75.24
30682;BME280;17439;48.092;11.842;2024-01-07T05:41:32;94643.00;;;4.12;75.14
30682;BME280;17439;48.092;11.842;2024-01-07T05:43:59;94635.25;;;4.10;75.21
30682;BME280;17439;48.092;11.842;2024-01-07T05:46:26;94632.84;;;4.09;75.37
30682;BME280;17439;48.092;11.842;2024-01-07T05:48:53;94641.72;;;4.09;75.37
30682;BME280;17439;48.092;11.842;2024-01-07T05:51:20;94642.50;;;4.10;75.47
30682;BME280;17439;48.092;11.842;2024-01-07T05:53:46;94641.72;;;4.09;75.58
30682;BME280;17439;48.092;11.842;2024-01-07T05:56:13;94640.59;;;4.10;75.53
30682;BME280;17439;48.092;11.842;2024-01-07T05:58:40;94641.44;;;4.11;75.44
30682;BME280;17439;48.092;11.842;2024-01-07T06:01:07;94650.25;;;4.11;75.41
30682;BME280;17439;48.092;11.842;2024-01-07T06:03:34;94641.50;;;4.06;74.34
30682;BME280;17439;48.092;11.842;2024-01-07T06:06:01;94641.72;;;4.09;75.48
30682;BME280;17439;48.092;11.842;2024-01-07T06:08:28;94645.41;;;4.13;75.44
30682;BME280;17439;48.092;11.842;2024-01-07T06:10:55;94645.69;;;4.12;75.15
30682;BME280;17439;48.092;11.842;2024-01-07T06:13:22;94653.72;;;4.12;75.23
30682;BME280;17439;48.092;11.842;2024-01-07T06:15:48;94660.22;;;4.11;75.35
30682;BME280;17439;48.092;11.842;2024-01-07T06:18:15;94661.28;;;4.10;75.39
30682;BME280;17439;48.092;11.842;2024-01-07T06:20:42;94648.66;;;4.10;75.40
30682;BME280;17439;48.092;11.842;2024-01-07T06:23:09;94656.41;;;4.12;75.47
30682;BME280;17439;48.092;11.842;2024-01-07T06:25:35;94662.59;;;4.12;75.42
30682;BME280;17439;48.092;11.842;2024-01-07T06:28:02;94652.66;;;4.13;75.32
30682;BME280;17439;48.092;11.842;2024-01-07T06:30:29;94658.81;;;4.13;75.48
30682;BME280;17439;48.092;11.842;2024-01-07T06:32:56;94663.38;;;4.13;75.37
30682;BME280;17439;48.092;11.842;2024-01-07T06:35:23;94662.59;;;4.12;75.40
30682;BME280;17439;48.092;11.842;2024-01-07T06:37:50;94671.94;;;4.15;75.56
30682;BME280;17439;48.092;11.842;2024-01-07T06:40:16;94675.16;;;4.17;75.61
30682;BME280;17439;48.092;11.842;2024-01-07T06:42:43;94674.78;;;4.24;75.38
30682;BME280;17439;48.092;11.842;2024-01-07T06:45:10;94676.69;;;4.23;75.15
30682;BME280;17439;48.092;11.842;2024-01-07T06:47:37;94674.00;;;4.23;74.87
30682;BME280;17439;48.092;11.842;2024-01-07T06:50:04;94685.31;;;4.20;74.69
30682;BME280;17439;48.092;11.842;2024-01-07T06:52:31;94683.13;;;4.22;74.83
30682;BME280;17439;48.092;11.842;2024-01-07T06:54:58;94689.28;;;4.23;74.59
30682;BME280;17439;48.092;11.842;2024-01-07T06:57:25;94692.25;;;4.21;74.66
30682;BME280;17439;48.092;11.842;2024-01-07T06:59:52;94696.03;;;4.20;74.83
30682;BME280;17439;48.092;11.842;2024-01-07T07:02:20;94696.31;;;4.18;75.00
30682;BME280;17439;48.092;11.842;2024-01-07T07:04:47;94696.31;;;4.18;75.17
30682;BME280;17439;48.092;11.842;2024-01-07T07:07:14;94693.66;;;4.18;75.03
30682;BME280;17439;48.092;11.842;2024-01-07T07:09:41;94691.25;;;4.17;75.07
30682;BME280;17439;48.092;11.842;2024-01-07T07:12:08;94704.09;;;4.20;75.01
30682;BME280;17439;48.092;11.842;2024-01-07T07:14:34;94707.28;;;4.22;74.77
30682;BME280;17439;48.092;11.842;2024-01-07T07:17:01;94699.81;;;4.19;75.02
30682;BME280;17439;48.092;11.842;2024-01-07T07:19:28;94708.34;;;4.21;74.82
30682;BME280;17439;48.092;11.842;2024-01-07T07:21:56;94708.63;;;4.20;75.00
30682;BME280;17439;48.092;11.842;2024-01-07T07:24:23;94711.09;;;4.16;75.30
30682;BME280;17439;48.092;11.842;2024-01-07T07:26:49;94705.94;;;4.20;75.23
30682;BME280;17439;48.092;11.842;2024-01-07T07:29:16;94715.09;;;4.18;75.19
30682;BME280;17439;48.092;11.842;2024-01-07T07:31:43;94717.78;;;4.18;75.14
30682;BME280;17439;48.092;11.842;2024-01-07T07:34:10;94728.44;;;4.24;74.62
30682;BME280;17439;48.092;11.842;2024-01-07T07:36:37;94725.56;;;4.20;74.53
30682;BME280;17439;48.092;11.842;2024-01-07T07:39:04;94730.38;;;4.18;74.68
30682;BME280;17439;48.092;11.842;2024-01-07T07:41:31;94733.03;;;4.23;74.14
30682;BME280;17439;48.092;11.842;2024-01-07T07:43:57;94735.19;;;4.21;74.38
30682;BME280;17439;48.092;11.842;2024-01-07T07:46:24;94733.06;;;4.18;74.55
30682;BME280;17439;48.092;11.842;2024-01-07T07:48:51;94737.16;;;4.15;74.78
30682;BME280;17439;48.092;11.842;2024-01-07T07:51:18;94741.69;;;4.15;74.79
30682;BME280;17439;48.092;11.842;2024-01-07T07:53:44;94748.16;;;4.14;74.90
30682;BME280;17439;48.092;11.842;2024-01-07T07:56:11;94750.56;;;4.15;75.09
30682;BME280;17439;48.092;11.842;2024-01-07T07:58:38;94746.78;;;4.16;74.79
30682;BME280;17439;48.092;11.842;2024-01-07T08:01:04;94757.00;;;4.14;74.86
30682;BME280;17439;48.092;11.842;2024-01-07T08:03:32;94753.47;;;4.19;74.66
30682;BME280;17439;48.092;11.842;2024-01-07T08:05:59;94754.81;;;4.16;74.83
30682;BME280;17439;48.092;11.842;2024-01-07T08:08:25;94764.75;;;4.16;74.82
30682;BME280;17439;48.092;11.842;2024-01-07T08:10:52;94764.75;;;4.16;75.04
30682;BME280;17439;48.092;11.842;2024-01-07T08:13:19;94765.34;;;4.13;75.31
30682;BME280;17439;48.092;11.842;2024-01-07T08:15:45;94762.38;;;4.14;75.44
30682;BME280;17439;48.092;11.842;2024-01-07T08:18:12;94766.13;;;4.13;75.60
30682;BME280;17439;48.092;11.842;2024-01-07T08:20:39;94773.38;;;4.13;75.68
30682;BME280;17439;48.092;11.842;2024-01-07T08:23:06;94775.00;;;4.14;75.85
30682;BME280;17439;48.092;11.842;2024-01-07T08:25:33;94780.28;;;4.19;75.95
30682;BME280;17439;48.092;11.842;2024-01-07T08:27:59;94778.66;;;4.23;75.40
30682;BME280;17439;48.092;11.842;2024-01-07T08:30:26;94780.22;;;4.24;75.53
30682;BME280;17439;48.092;11.842;2024-01-07T08:32:53;94783.13;;;4.28;75.40
30682;BME280;17439;48.092;11.842;2024-01-07T08:35:20;94785.31;;;4.26;75.51
30682;BME280;17439;48.092;11.842;2024-01-07T08:37:49;94789.31;;;4.28;76.03
30682;BME280;17439;48.092;11.842;2024-01-07T08:40:16;94790.09;;;4.29;75.91
30682;BME280;17439;48.092;11.842;2024-01-07T08:42:43;94785.53;;;4.29;76.13
30682;BME280;17439;48.092;11.842;2024-01-07T08:45:09;94787.69;;;4.27;76.35
30682;BME280;17439;48.092;11.842;2024-01-07T08:47:36;94792.50;;;4.30;76.54
30682;BME280;17439;48.092;11.842;2024-01-07T08:50:09;94795.97;;;4.31;76.24
30682;BME280;17439;48.092;11.842;2024-01-07T08:52:36;94799.41;;;4.36;76.27
30682;BME280;17439;48.092;11.842;2024-01-07T08:55:03;94803.16;;;4.35;76.17
30682;BME280;17439;48.092;11.842;2024-01-07T08:57:30;94801.28;;;4.36;76.55
30682;BME280;17439;48.092;11.842;2024-01-07T08:59:56;94805.00;;;4.40;76.57
30682;BME280;17439;48.092;11.842;2024-01-07T09:02:24;94811.09;;;4.46;76.39
30682;BME280;17439;48.092;11.842;2024-01-07T09:04:50;94813.78;;;4.46;75.92
30682;BME280;17439;48.092;11.842;2024-01-07T09:07:17;94815.63;;;4.50;75.58
30682;BME280;17439;48.092;11.842;2024-01-07T09:09:44;94818.31;;;4.50;75.35
30682;BME280;17439;48.092;11.842;2024-01-07T09:12:11;94823.38;;;4.52;75.46
30682;BME280;17439;48.092;11.842;2024-01-07T09:14:38;94817.47;;;4.50;75.30
30682;BME280;17439;48.092;11.842;2024-01-07T09:17:05;94822.81;;;4.55;75.10
30682;BME280;17439;48.092;11.842;2024-01-07T09:19:31;94827.06;;;4.56;74.62
30682;BME280;17439;48.092;11.842;2024-01-07T09:21:58;94825.50;;;4.55;74.79
30682;BME280;17439;48.092;11.842;2024-01-07T09:24:25;94825.50;;;4.55;74.43
30682;BME280;17439;48.092;11.842;2024-01-07T09:26:52;94831.16;;;4.53;74.53
30682;BME280;17439;48.092;11.842;2024-01-07T09:29:19;94833.31;;;4.51;74.83
30682;BME280;17439;48.092;11.842;2024-01-07T09:31:45;94828.22;;;4.50;75.05
30682;BME280;17439;48.092;11.842;2024-01-07T09:34:12;94842.41;;;4.56;74.72
30682;BME280;17439;48.092;11.842;2024-01-07T09:36:39;94838.63;;;4.57;73.78
30682;BME280;17439;48.092;11.842;2024-01-07T09:39:06;94839.41;;;4.57;73.49
30682;BME280;17439;48.092;11.842;2024-01-07T09:41:33;94839.50;;;4.52;74.21
30682;BME280;17439;48.092;11.842;2024-01-07T09:43:59;94838.38;;;4.53;74.41
30682;BME280;17439;48.092;11.842;2024-01-07T09:46:28;94845.94;;;4.51;73.92
30682;BME280;17439;48.092;11.842;2024-01-07T09:48:55;94839.19;;;4.53;73.65
30682;BME280;17439;48.092;11.842;2024-01-07T09:51:22;94842.19;;;4.52;73.44
30682;BME280;17439;48.092;11.842;2024-01-07T09:53:56;94845.72;;;4.47;73.96
30682;BME280;17439;48.092;11.842;2024-01-07T09:56:25;94838.97;;;4.50;74.30
30682;BME280;17439;48.092;11.842;2024-01-07T09:58:52;94835.41;;;4.54;73.79
30682;BME280;17439;48.092;11.842;2024-01-07T10:01:19;94839.25;;;4.48;73.92
30682;BME280;17439;48.092;11.842;2024-01-07T10:03:47;94837.94;;;4.46;74.42
30682;BME280;17439;48.092;11.842;2024-01-07T10:06:17;94843.88;;;4.43;74.56
30682;BME280;17439;48.092;11.842;2024-01-07T10:08:44;94844.09;;;4.46;74.96
30682;BME280;17439;48.092;11.842;2024-01-07T10:11:16;94844.41;;;4.45;75.10
30682;BME280;17439;48.092;11.842;2024-01-07T10:13:45;94841.94;;;4.48;75.53
30682;BME280;17439;48.092;11.842;2024-01-07T10:16:11;94843.19;;;4.56;74.76
30682;BME280;17439;48.092;11.842;2024-01-07T10:18:38;94842.25;;;4.66;73.90
30682;BME280;17439;48.092;11.842;2024-01-07T10:21:06;94845.22;;;4.64;73.33
30682;BME280;17439;48.092;11.842;2024-01-07T10:23:33;94847.19;;;4.59;74.06
30682;BME280;17439;48.092;11.842;2024-01-07T10:26:00;94849.59;;;4.60;73.80
30682;BME280;17439;48.092;11.842;2024-01-07T10:28:37;94848.56;;;4.56;74.61
30682;BME280;17439;48.092;11.842;2024-01-07T10:31:05;94850.66;;;4.59;75.07
30682;BME280;17439;48.092;11.842;2024-01-07T10:33:32;94851.78;;;4.58;75.23
30682;BME280;17439;48.092;11.842;2024-01-07T10:36:05;94844.00;;;4.57;74.94
30682;BME280;17439;48.092;11.842;2024-01-07T10:38:32;94853.34;;;4.59;75.50
30682;BME280;17439;48.092;11.842;2024-01-07T10:41:00;94852.56;;;4.59;75.72
30682;BME280;17439;48.092;11.842;2024-01-07T10:43:29;94846.91;;;4.60;75.78
30682;BME280;17439;48.092;11.842;2024-01-07T10:46:00;94852.50;;;4.64;75.76
30682;BME280;17439;48.092;11.842;2024-01-07T10:48:30;94849.22;;;4.67;76.30
30682;BME280;17439;48.092;11.842;2024-01-07T10:51:00;94852.66;;;4.72;76.86
30682;BME280;17439;48.092;11.842;2024-01-07T10:53:28;94845.03;;;4.80;76.32
30682;BME280;17439;48.092;11.842;2024-01-07T10:56:08;94849.56;;;4.84;75.50
30682;BME280;17439;48.092;11.842;2024-01-07T10:58:38;94855.06;;;4.93;75.25
30682;BME280;17439;48.092;11.842;2024-01-07T11:01:06;94850.94;;;5.01;73.58
30682;BME280;17439;48.092;11.842;2024-01-07T11:04:05;94852.09;;;4.95;74.08
30682;BME280;17439;48.092;11.842;2024-01-07T11:06:38;94859.13;;;4.90;73.96
30682;BME280;17439;48.092;11.842;2024-01-07T11:11:43;94857.25;;;4.91;75.31
30682;BME280;17439;48.092;11.842;2024-01-07T11:14:34;94857.75;;;4.93;75.79
30682;BME280;17439;48.092;11.842;2024-01-07T11:17:01;94856.25;;;5.06;71.89
30682;BME280;17439;48.092;11.842;2024-01-07T11:19:28;94861.84;;;5.09;71.85
30682;BME280;17439;48.092;11.842;2024-01-07T11:22:21;94858.66;;;5.07;72.39
30682;BME280;17439;48.092;11.842;2024-01-07T11:24:48;94855.34;;;5.11;69.96
30682;BME280;17439;48.092;11.842;2024-01-07T11:27:15;94851.66;;;5.06;70.82
30682;BME280;17439;48.092;11.842;2024-01-07T11:29:42;94856.25;;;5.06;70.24
30682;BME280;17439;48.092;11.842;2024-01-07T11:32:12;94860.81;;;5.05;70.02
30682;BME280;17439;48.092;11.842;2024-01-07T11:34:43;94863.22;;;5.07;68.08
30682;BME280;17439;48.092;11.842;2024-01-07T11:37:10;94858.78;;;4.97;68.81
30682;BME280;17439;48.092;11.842;2024-01-07T11:39:37;94855.72;;;4.85;70.21
30682;BME280;17439;48.092;11.842;2024-01-07T11:42:04;94855.66;;;4.90;68.58
30682;BME280;17439;48.092;11.842;2024-01-07T11:44:34;94861.91;;;4.85;69.32
30682;BME280;17439;48.092;11.842;2024-01-07T11:47:01;94868.19;;;4.76;70.63
30682;BME280;17439;48.092;11.842;2024-01-07T11:49:28;94866.38;;;4.71;71.17
30682;BME280;17439;48.092;11.842;2024-01-07T11:51:54;94867.44;;;4.70;71.06
30682;BME280;17439;48.092;11.842;2024-01-07T11:54:21;94866.94;;;4.68;71.14
30682;BME280;17439;48.092;11.842;2024-01-07T11:56:48;94864.59;;;4.61;72.00
30682;BME280;17439;48.092;11.842;2024-01-07T11:59:15;94867.28;;;4.61;72.03
30682;BME280;17439;48.092;11.842;2024-01-07T12:01:42;94871.06;;;4.60;72.57
30682;BME280;17439;48.092;11.842;2024-01-07T12:04:09;94869.16;;;4.61;72.57
30682;BME280;17439;48.092;11.842;2024-01-07T12:06:36;94872.59;;;4.66;71.94
30682;BME280;17439;48.092;11.842;2024-01-07T12:09:02;94870.44;;;4.68;72.08
30682;BME280;17439;48.092;11.842;2024-01-07T12:11:29;94879.06;;;4.65;72.42
30682;BME280;17439;48.092;11.842;2024-01-07T12:13:57;94879.81;;;4.71;71.71
30682;BME280;17439;48.092;11.842;2024-01-07T12:16:24;94870.44;;;4.68;71.59
30682;BME280;17439;48.092;11.842;2024-01-07T12:18:51;94877.16;;;4.66;71.95
30682;BME280;17439;48.092;11.842;2024-01-07T12:21:19;94883.84;;;4.68;72.34
30682;BME280;17439;48.092;11.842;2024-01-07T12:26:35;94884.88;;;4.72;70.75
30682;BME280;17439;48.092;11.842;2024-01-07T12:29:01;94886.13;;;4.80;69.27
30682;BME280;17439;48.092;11.842;2024-01-07T12:31:32;94881.00;;;4.84;68.63
30682;BME280;17439;48.092;11.842;2024-01-07T12:34:02;94880.03;;;4.75;69.42
30682;BME280;17439;48.092;11.842;2024-01-07T12:36:29;94886.53;;;4.68;69.68
30682;BME280;17439;48.092;11.842;2024-01-07T12:38:56;94882.88;;;4.59;70.63
30682;BME280;17439;48.092;11.842;2024-01-07T12:41:23;94889.38;;;4.53;71.35
30682;BME280;17439;48.092;11.842;2024-01-07T12:43:50;94890.50;;;4.52;72.05
30682;BME280;17439;48.092;11.842;2024-01-07T12:46:17;94891.06;;;4.49;72.05
30682;BME280;17439;48.092;11.842;2024-01-07T12:48:44;94893.50;;;4.45;72.84
30682;BME280;17439;48.092;11.842;2024-01-07T12:51:11;94899.91;;;4.49;72.84
30682;BME280;17439;48.092;11.842;2024-01-07T12:53:37;94898.00;;;4.50;72.42
30682;BME280;17439;48.092;11.842;2024-01-07T12:56:04;94898.00;;;4.50;72.32
30682;BME280;17439;48.092;11.842;2024-01-07T12:58:31;94905.22;;;4.54;71.17
30682;BME280;17439;48.092;11.842;2024-01-07T13:00:58;94905.50;;;4.53;71.06
30682;BME280;17439;48.092;11.842;2024-01-07T13:03:25;94908.44;;;4.57;70.11
30682;BME280;17439;48.092;11.842;2024-01-07T13:05:52;94913.56;;;4.53;70.62
30682;BME280;17439;48.092;11.842;2024-01-07T13:08:19;94911.72;;;4.48;70.73